createdAt,value
2018-11-28T00:00:12.027Z,0
2018-11-28T00:01:12.047Z,0
2018-11-28T00:02:11.984Z,0
2018-11-28T00:03:11.990Z,0
2018-11-28T00:04:11.984Z,0
2018-11-28T00:05:11.997Z,0
2018-11-28T00:06:11.974Z,0
2018-11-28T00:07:11.935Z,0
2018-11-28T00:08:11.678Z,0
2018-11-28T00:09:11.881Z,0
2018-11-28T00:10:11.913Z,0
2018-11-28T00:11:11.873Z,0
2018-11-28T00:12:11.855Z,0
2018-11-28T00:13:11.867Z,0
2018-11-28T00:14:11.813Z,0
2018-11-28T00:15:11.845Z,0
2018-11-28T00:16:11.795Z,0
2018-11-28T00:17:11.830Z,0
2018-11-28T00:18:11.753Z,0
2018-11-28T00:19:11.755Z,0
2018-11-28T00:20:11.742Z,0
2018-11-28T00:21:11.756Z,0
2018-11-28T00:22:11.734Z,0
2018-11-28T00:23:11.694Z,0
2018-11-28T00:24:11.678Z,0
2018-11-28T00:25:11.699Z,0
2018-11-28T00:26:11.643Z,0
2018-11-28T00:27:11.663Z,0
2018-11-28T00:28:11.854Z,0
2018-11-28T00:29:11.636Z,0
2018-11-28T00:30:11.583Z,0
2018-11-28T00:31:11.611Z,0
2018-11-28T00:32:11.561Z,0
2018-11-28T00:33:11.579Z,0
2018-11-28T00:34:11.517Z,0
2018-11-28T00:35:11.521Z,0
2018-11-28T00:36:11.501Z,0
2018-11-28T00:37:11.519Z,0
2018-11-28T00:38:11.465Z,0
2018-11-28T00:39:11.469Z,0
2018-11-28T00:40:11.461Z,0
2018-11-28T00:41:11.459Z,0
2018-11-28T00:42:11.415Z,0
2018-11-28T00:43:11.415Z,0
2018-11-28T00:44:11.374Z,0
2018-11-28T00:45:11.410Z,0
2018-11-28T00:46:11.344Z,0
2018-11-28T00:47:11.372Z,0
2018-11-28T00:48:11.329Z,0
2018-11-28T00:49:11.352Z,0
2018-11-28T00:50:11.284Z,0
2018-11-28T00:51:11.284Z,0
2018-11-28T00:52:11.270Z,0
2018-11-28T00:53:11.284Z,0
2018-11-28T00:54:11.266Z,0
2018-11-28T00:55:11.235Z,0
2018-11-28T00:56:11.207Z,0
2018-11-28T00:57:11.178Z,0
2018-11-28T00:58:11.211Z,0
2018-11-28T00:59:11.458Z,0
2018-11-28T01:00:11.186Z,0
2018-11-28T01:01:11.128Z,0
2018-11-28T01:02:11.154Z,0
2018-11-28T01:03:11.107Z,0
2018-11-28T01:04:11.089Z,0
2018-11-28T01:05:11.111Z,0
2018-11-28T01:06:11.048Z,0
2018-11-28T01:07:11.046Z,0
2018-11-28T01:08:11.030Z,0
2018-11-28T01:09:11.051Z,0
2018-11-28T01:10:11.035Z,0
2018-11-28T01:11:10.991Z,0
2018-11-28T01:12:10.974Z,0
2018-11-28T01:13:10.944Z,0
2018-11-28T01:14:11.026Z,0
2018-11-28T01:15:10.936Z,0
2018-11-28T01:16:10.949Z,0
2018-11-28T01:17:10.885Z,0
2018-11-28T01:18:10.918Z,0
2018-11-28T01:19:10.855Z,0
2018-11-28T01:20:10.875Z,0
2018-11-28T01:21:10.827Z,0
2018-11-28T01:22:10.861Z,0
2018-11-28T01:23:10.831Z,0
2018-11-28T01:24:10.812Z,0
2018-11-28T01:25:10.781Z,0
2018-11-28T01:26:10.753Z,0
2018-11-28T01:27:10.769Z,0
2018-11-28T01:28:10.764Z,0
2018-11-28T01:29:10.710Z,0
2018-11-28T01:30:10.734Z,0
2018-11-28T01:31:10.698Z,0
2018-11-28T01:32:10.726Z,0
2018-11-28T01:33:10.649Z,0
2018-11-28T01:34:10.739Z,0
2018-11-28T01:35:10.616Z,0
2018-11-28T01:36:10.638Z,0
2018-11-28T01:37:10.591Z,0
2018-11-28T01:38:10.625Z,0
2018-11-28T01:39:10.589Z,0
2018-11-28T01:40:10.579Z,0
2018-11-28T01:41:10.531Z,0
2018-11-28T01:42:10.522Z,0
2018-11-28T01:43:12.013Z,0
2018-11-28T01:44:10.530Z,0
2018-11-28T01:45:10.528Z,0
2018-11-28T01:46:10.473Z,0
2018-11-28T01:47:10.484Z,0
2018-11-28T01:48:10.451Z,0
2018-11-28T01:49:10.471Z,0
2018-11-28T01:50:10.405Z,0
2018-11-28T01:51:10.440Z,0
2018-11-28T01:52:10.385Z,0
2018-11-28T01:53:10.411Z,0
2018-11-28T01:54:10.346Z,0
2018-11-28T01:55:10.354Z,0
2018-11-28T01:56:10.347Z,0
2018-11-28T01:57:10.295Z,0
2018-11-28T01:58:10.298Z,0
2018-11-28T01:59:10.306Z,0
2018-11-28T02:00:10.290Z,0
2018-11-28T02:01:10.286Z,0
2018-11-28T02:02:10.483Z,0
2018-11-28T02:03:10.281Z,0
2018-11-28T02:04:10.194Z,0
2018-11-28T02:05:10.236Z,0
2018-11-28T02:06:10.171Z,0
2018-11-28T02:07:10.177Z,0
2018-11-28T02:08:10.171Z,0
2018-11-28T02:09:10.117Z,0
2018-11-28T02:10:10.153Z,0
2018-11-28T02:11:10.125Z,0
2018-11-28T02:12:10.105Z,0
2018-11-28T02:13:10.066Z,0
2018-11-28T02:14:10.047Z,0
2018-11-28T02:15:10.056Z,0
2018-11-28T02:16:10.053Z,0
2018-11-28T02:17:10.049Z,0
2018-11-28T02:18:09.996Z,0
2018-11-28T02:19:09.998Z,0
2018-11-28T02:20:09.986Z,0
2018-11-28T02:21:09.940Z,0
2018-11-28T02:22:09.967Z,0
2018-11-28T02:23:09.914Z,0
2018-11-28T02:24:09.933Z,0
2018-11-28T02:25:09.883Z,0
2018-11-28T02:26:09.918Z,0
2018-11-28T02:27:09.633Z,0
2018-11-28T02:28:09.870Z,0
2018-11-28T02:29:09.817Z,0
2018-11-28T02:30:09.815Z,0
2018-11-28T02:31:09.826Z,0
2018-11-28T02:32:09.822Z,0
2018-11-28T02:33:10.065Z,0
2018-11-28T02:34:09.764Z,0
2018-11-28T02:35:09.760Z,0
2018-11-28T02:36:09.716Z,0
2018-11-28T02:37:09.746Z,0
2018-11-28T02:38:09.744Z,0
2018-11-28T02:39:09.718Z,0
2018-11-28T02:40:09.695Z,0
2018-11-28T02:41:09.685Z,0
2018-11-28T02:42:09.623Z,0
2018-11-28T02:43:09.639Z,0
2018-11-28T02:44:09.611Z,0
2018-11-28T02:45:09.632Z,0
2018-11-28T02:46:09.565Z,0
2018-11-28T02:47:09.588Z,0
2018-11-28T02:48:09.565Z,0
2018-11-28T02:49:09.574Z,0
2018-11-28T02:50:09.513Z,0
2018-11-28T02:51:09.521Z,0
2018-11-28T02:52:09.479Z,0
2018-11-28T02:53:09.505Z,0
2018-11-28T02:54:09.451Z,0
2018-11-28T02:55:09.484Z,0
2018-11-28T02:56:09.445Z,0
2018-11-28T02:57:09.451Z,0
2018-11-28T02:58:09.382Z,0
2018-11-28T02:59:09.405Z,0
2018-11-28T03:00:09.380Z,0
2018-11-28T03:01:09.394Z,0
2018-11-28T03:02:09.416Z,0
2018-11-28T03:03:09.333Z,0
2018-11-28T03:04:09.561Z,0
2018-11-28T03:05:09.281Z,0
2018-11-28T03:06:09.306Z,0
2018-11-28T03:07:09.272Z,0
2018-11-28T03:08:09.304Z,0
2018-11-28T03:09:09.224Z,0
2018-11-28T03:10:09.256Z,0
2018-11-28T03:11:09.211Z,0
2018-11-28T03:12:09.187Z,0
2018-11-28T03:13:09.207Z,0
2018-11-28T03:14:09.141Z,0
2018-11-28T03:15:09.145Z,0
2018-11-28T03:16:09.140Z,0
2018-11-28T03:17:09.167Z,0
2018-11-28T03:18:09.126Z,0
2018-11-28T03:19:09.086Z,0
2018-11-28T03:20:09.068Z,0
2018-11-28T03:21:09.046Z,0
2018-11-28T03:22:09.069Z,0
2018-11-28T03:23:09.054Z,0
2018-11-28T03:24:09.053Z,0
2018-11-28T03:25:08.988Z,0
2018-11-28T03:26:09.007Z,0
2018-11-28T03:27:08.960Z,0
2018-11-28T03:28:08.971Z,0
2018-11-28T03:29:08.921Z,0
2018-11-28T03:30:08.969Z,0
2018-11-28T03:31:08.974Z,0
2018-11-28T03:32:08.946Z,0
2018-11-28T03:33:08.937Z,0
2018-11-28T03:34:08.851Z,0
2018-11-28T03:35:09.109Z,0
2018-11-28T03:36:08.848Z,0
2018-11-28T03:37:08.891Z,0
2018-11-28T03:38:08.832Z,0
2018-11-28T03:39:08.791Z,0
2018-11-28T03:40:08.577Z,0
2018-11-28T03:41:08.752Z,0
2018-11-28T03:42:08.769Z,0
2018-11-28T03:43:08.704Z,0
2018-11-28T03:44:08.747Z,0
2018-11-28T03:45:08.693Z,0
2018-11-28T03:46:08.719Z,0
2018-11-28T03:47:08.673Z,0
2018-11-28T03:48:08.681Z,0
2018-11-28T03:49:08.627Z,0
2018-11-28T03:50:08.649Z,0
2018-11-28T03:51:08.601Z,0
2018-11-28T03:52:08.582Z,0
2018-11-28T03:53:08.549Z,0
2018-11-28T03:54:08.589Z,0
2018-11-28T03:55:08.554Z,0
2018-11-28T03:56:08.555Z,0
2018-11-28T03:57:08.513Z,0
2018-11-28T03:58:08.525Z,0
2018-11-28T03:59:08.515Z,0
2018-11-28T04:00:08.483Z,0
2018-11-28T04:01:08.432Z,0
2018-11-28T04:02:08.453Z,0
2018-11-28T04:03:08.416Z,0
2018-11-28T04:04:08.401Z,0
2018-11-28T04:05:08.415Z,0
2018-11-28T04:06:08.389Z,0
2018-11-28T04:07:08.378Z,0
2018-11-28T04:08:08.331Z,0
2018-11-28T04:09:08.306Z,0
2018-11-28T04:10:08.361Z,0
2018-11-28T04:11:08.302Z,0
2018-11-28T04:12:08.310Z,0
2018-11-28T04:13:08.229Z,0
2018-11-28T04:14:08.258Z,0
2018-11-28T04:15:08.203Z,0
2018-11-28T04:16:08.235Z,0
2018-11-28T04:17:08.177Z,0
2018-11-28T04:18:08.199Z,0
2018-11-28T04:19:08.168Z,0
2018-11-28T04:20:08.159Z,0
2018-11-28T04:21:08.110Z,0
2018-11-28T04:22:08.095Z,0
2018-11-28T04:23:08.110Z,0
2018-11-28T04:24:08.085Z,0
2018-11-28T04:25:08.089Z,0
2018-11-28T04:26:08.022Z,0
2018-11-28T04:27:08.033Z,0
2018-11-28T04:28:08.022Z,0
2018-11-28T04:29:07.978Z,0
2018-11-28T04:30:08.024Z,0
2018-11-28T04:31:07.933Z,0
2018-11-28T04:32:07.956Z,0
2018-11-28T04:33:08.001Z,0
2018-11-28T04:34:07.935Z,0
2018-11-28T04:35:07.904Z,0
2018-11-28T04:36:07.638Z,0
2018-11-28T04:37:07.843Z,0
2018-11-28T04:38:08.071Z,0
2018-11-28T04:39:07.840Z,0
2018-11-28T04:40:07.820Z,0
2018-11-28T04:41:07.829Z,0
2018-11-28T04:42:07.760Z,0
2018-11-28T04:43:07.769Z,0
2018-11-28T04:44:07.712Z,0
2018-11-28T04:45:07.750Z,0
2018-11-28T04:46:07.694Z,0
2018-11-28T04:47:07.714Z,0
2018-11-28T04:48:07.665Z,0
2018-11-28T04:49:07.683Z,0
2018-11-28T04:50:07.374Z,0
2018-11-28T04:51:07.620Z,0
2018-11-28T04:52:07.611Z,0
2018-11-28T04:53:07.625Z,0
2018-11-28T04:54:07.550Z,0
2018-11-28T04:55:07.568Z,0
2018-11-28T04:56:07.550Z,0
2018-11-28T04:57:07.554Z,0
2018-11-28T04:58:07.506Z,0
2018-11-28T04:59:07.519Z,0
2018-11-28T05:00:07.541Z,0
2018-11-28T05:01:07.474Z,0
2018-11-28T05:02:07.412Z,0
2018-11-28T05:03:07.438Z,0
2018-11-28T05:04:07.389Z,0
2018-11-28T05:05:07.401Z,0
2018-11-28T05:06:07.351Z,0
2018-11-28T05:07:07.337Z,0
2018-11-28T05:08:07.451Z,0
2018-11-28T05:09:07.581Z,0
2018-11-28T05:10:07.326Z,0
2018-11-28T05:11:07.270Z,0
2018-11-28T05:12:07.247Z,0
2018-11-28T05:13:07.227Z,0
2018-11-28T05:14:07.246Z,0
2018-11-28T05:15:07.197Z,0
2018-11-28T05:16:07.211Z,0
2018-11-28T05:17:07.142Z,0
2018-11-28T05:18:07.231Z,0
2018-11-28T05:19:07.134Z,0
2018-11-28T05:20:07.107Z,0
2018-11-28T05:21:07.121Z,0
2018-11-28T05:22:07.059Z,0
2018-11-28T05:23:07.060Z,0
2018-11-28T05:24:07.036Z,0
2018-11-28T05:25:07.055Z,0
2018-11-28T05:26:07.028Z,0
2018-11-28T05:27:06.999Z,0
2018-11-28T05:28:06.966Z,0
2018-11-28T05:29:06.937Z,0
2018-11-28T05:30:06.964Z,0
2018-11-28T05:31:06.915Z,0
2018-11-28T05:32:06.930Z,0
2018-11-28T05:33:06.868Z,0
2018-11-28T05:34:06.886Z,0
2018-11-28T05:35:06.823Z,0
2018-11-28T05:36:06.842Z,0
2018-11-28T05:37:06.791Z,0
2018-11-28T05:38:06.829Z,0
2018-11-28T05:39:06.791Z,0
2018-11-28T05:40:07.022Z,0
2018-11-28T05:41:06.720Z,0
2018-11-28T05:42:06.715Z,0
2018-11-28T05:43:06.716Z,0
2018-11-28T05:44:06.704Z,0
2018-11-28T05:45:06.652Z,0
2018-11-28T05:46:06.680Z,0
2018-11-28T05:47:06.649Z,0
2018-11-28T05:48:06.643Z,0
2018-11-28T05:49:06.579Z,0
2018-11-28T05:50:06.621Z,0
2018-11-28T05:51:06.544Z,0
2018-11-28T05:52:06.559Z,0
2018-11-28T05:53:06.515Z,0
2018-11-28T05:54:06.548Z,0
2018-11-28T05:55:06.628Z,0
2018-11-28T05:56:06.495Z,0
2018-11-28T05:57:06.454Z,0
2018-11-28T05:58:06.425Z,0
2018-11-28T05:59:06.434Z,0
2018-11-28T06:00:07.343Z,0
2018-11-28T06:01:06.418Z,0
2018-11-28T06:02:06.357Z,0
2018-11-28T06:03:06.362Z,0
2018-11-28T06:04:06.317Z,0
2018-11-28T06:05:06.347Z,4
2018-11-28T06:06:06.045Z,4
2018-11-28T06:07:06.309Z,0
2018-11-28T06:08:06.257Z,4
2018-11-28T06:09:06.271Z,4
2018-11-28T06:10:06.218Z,4
2018-11-28T06:11:06.482Z,4
2018-11-28T06:12:06.264Z,4
2018-11-28T06:13:06.178Z,4
2018-11-28T06:14:06.142Z,4
2018-11-28T06:15:06.152Z,4
2018-11-28T06:16:06.131Z,8
2018-11-28T06:17:06.128Z,8
2018-11-28T06:18:06.085Z,8
2018-11-28T06:19:06.077Z,12
2018-11-28T06:20:06.029Z,12
2018-11-28T06:21:06.068Z,16
2018-11-28T06:22:06.004Z,20
2018-11-28T06:23:06.044Z,20
2018-11-28T06:24:05.973Z,24
2018-11-28T06:25:05.993Z,28
2018-11-28T06:26:05.927Z,52
2018-11-28T06:27:05.684Z,68
2018-11-28T06:28:05.911Z,80
2018-11-28T06:29:05.919Z,88
2018-11-28T06:30:05.900Z,100
2018-11-28T06:31:05.849Z,108
2018-11-28T06:32:05.831Z,120
2018-11-28T06:33:05.802Z,124
2018-11-28T06:34:05.873Z,136
2018-11-28T06:35:05.779Z,152
2018-11-28T06:36:05.759Z,160
2018-11-28T06:37:05.774Z,176
2018-11-28T06:38:05.711Z,192
2018-11-28T06:39:05.745Z,208
2018-11-28T06:40:05.689Z,224
2018-11-28T06:41:05.711Z,244
2018-11-28T06:42:05.644Z,264
2018-11-28T06:43:05.643Z,284
2018-11-28T06:44:05.621Z,308
2018-11-28T06:45:05.639Z,332
2018-11-28T06:46:05.614Z,356
2018-11-28T06:47:05.567Z,380
2018-11-28T06:48:05.305Z,408
2018-11-28T06:49:05.514Z,436
2018-11-28T06:50:05.548Z,464
2018-11-28T06:51:05.493Z,496
2018-11-28T06:52:05.513Z,528
2018-11-28T06:53:05.446Z,560
2018-11-28T06:54:05.219Z,592
2018-11-28T06:55:05.402Z,624
2018-11-28T06:56:05.428Z,664
2018-11-28T06:57:05.371Z,700
2018-11-28T06:58:05.398Z,736
2018-11-28T06:59:05.363Z,772
2018-11-28T07:00:05.350Z,812
2018-11-28T07:01:05.295Z,848
2018-11-28T07:02:05.325Z,888
2018-11-28T07:03:05.282Z,928
2018-11-28T07:04:05.262Z,968
2018-11-28T07:05:05.226Z,1008
2018-11-28T07:06:05.264Z,1052
2018-11-28T07:07:05.205Z,1096
2018-11-28T07:08:05.232Z,1136
2018-11-28T07:09:05.154Z,1176
2018-11-28T07:10:05.180Z,1220
2018-11-28T07:11:05.130Z,1264
2018-11-28T07:12:05.135Z,1308
2018-11-28T07:13:05.081Z,1352
2018-11-28T07:14:05.370Z,1392
2018-11-28T07:15:05.065Z,1436
2018-11-28T07:16:05.047Z,1476
2018-11-28T07:17:05.060Z,1528
2018-11-28T07:18:05.035Z,1564
2018-11-28T07:19:04.996Z,1604
2018-11-28T07:20:04.726Z,1648
2018-11-28T07:21:04.956Z,1696
2018-11-28T07:22:05.978Z,1736
2018-11-28T07:23:04.965Z,1776
2018-11-28T07:24:04.936Z,1820
2018-11-28T07:25:04.867Z,1860
2018-11-28T07:26:04.892Z,1920
2018-11-28T07:27:04.853Z,1940
2018-11-28T07:28:04.828Z,1988
2018-11-28T07:29:04.844Z,2044
2018-11-28T07:30:04.781Z,2072
2018-11-28T07:31:04.781Z,2104
2018-11-28T07:32:04.758Z,2136
2018-11-28T07:33:04.783Z,2176
2018-11-28T07:34:04.812Z,2212
2018-11-28T07:35:04.709Z,2244
2018-11-28T07:36:04.451Z,2268
2018-11-28T07:37:04.657Z,2328
2018-11-28T07:38:04.697Z,2344
2018-11-28T07:39:04.662Z,2360
2018-11-28T07:40:04.652Z,2392
2018-11-28T07:41:04.589Z,2420
2018-11-28T07:42:04.607Z,2472
2018-11-28T07:43:04.563Z,2484
2018-11-28T07:44:04.567Z,2512
2018-11-28T07:45:04.775Z,2548
2018-11-28T07:46:04.547Z,2572
2018-11-28T07:47:04.512Z,2592
2018-11-28T07:48:04.500Z,2636
2018-11-28T07:49:04.451Z,2644
2018-11-28T07:50:04.433Z,2692
2018-11-28T07:51:04.438Z,2692
2018-11-28T07:52:04.438Z,2716
2018-11-28T07:53:04.371Z,2752
2018-11-28T07:54:04.448Z,2780
2018-11-28T07:55:04.359Z,2800
2018-11-28T07:56:04.371Z,2800
2018-11-28T07:57:04.305Z,2836
2018-11-28T07:58:04.335Z,2852
2018-11-28T07:59:04.274Z,2884
2018-11-28T08:00:04.294Z,2896
2018-11-28T08:01:04.406Z,2928
2018-11-28T08:02:04.273Z,2920
2018-11-28T08:03:04.234Z,2948
2018-11-28T08:04:04.287Z,2976
2018-11-28T08:05:04.236Z,2988
2018-11-28T08:06:04.153Z,3008
2018-11-28T08:07:04.174Z,3028
2018-11-28T08:08:03.916Z,3040
2018-11-28T08:09:04.160Z,3048
2018-11-28T08:10:04.091Z,3064
2018-11-28T08:11:04.145Z,3096
2018-11-28T08:12:04.051Z,3120
2018-11-28T08:13:04.079Z,3108
2018-11-28T08:14:04.022Z,3140
2018-11-28T08:15:04.052Z,3152
2018-11-28T08:16:04.302Z,3168
2018-11-28T08:17:04.039Z,3184
2018-11-28T08:18:03.957Z,3200
2018-11-28T08:19:03.964Z,3224
2018-11-28T08:20:03.953Z,3228
2018-11-28T08:21:03.896Z,3248
2018-11-28T08:22:03.898Z,3264
2018-11-28T08:23:03.890Z,3272
2018-11-28T08:24:03.886Z,3276
2018-11-28T08:25:04.136Z,3304
2018-11-28T08:26:03.834Z,3308
2018-11-28T08:27:03.859Z,3328
2018-11-28T08:28:04.077Z,3332
2018-11-28T08:29:03.821Z,3368
2018-11-28T08:30:03.779Z,3356
2018-11-28T08:31:03.776Z,3380
2018-11-28T08:32:03.959Z,3392
2018-11-28T08:33:03.742Z,3392
2018-11-28T08:34:03.688Z,3408
2018-11-28T08:35:03.695Z,3424
2018-11-28T08:36:03.661Z,3436
2018-11-28T08:37:03.681Z,3452
2018-11-28T08:38:03.656Z,3468
2018-11-28T08:39:04.225Z,3480
2018-11-28T08:40:03.595Z,3492
2018-11-28T08:41:03.564Z,3512
2018-11-28T08:42:03.602Z,3524
2018-11-28T08:43:03.322Z,3524
2018-11-28T08:44:03.522Z,3536
2018-11-28T08:45:03.542Z,3536
2018-11-28T08:46:03.486Z,3540
2018-11-28T08:47:03.526Z,3552
2018-11-28T08:48:03.463Z,3544
2018-11-28T08:49:03.481Z,3548
2018-11-28T08:50:03.683Z,3556
2018-11-28T08:51:03.419Z,3560
2018-11-28T08:52:03.395Z,3564
2018-11-28T08:53:03.412Z,3576
2018-11-28T08:54:03.417Z,3576
2018-11-28T08:55:03.352Z,3580
2018-11-28T08:56:03.362Z,3584
2018-11-28T08:57:04.214Z,3600
2018-11-28T08:58:03.301Z,3604
2018-11-28T08:59:03.385Z,3616
2018-11-28T09:00:03.250Z,3628
2018-11-28T09:01:03.280Z,3636
2018-11-28T09:02:03.222Z,3644
2018-11-28T09:03:03.252Z,3648
2018-11-28T09:04:03.204Z,3652
2018-11-28T09:05:03.215Z,3660
2018-11-28T09:06:03.192Z,3676
2018-11-28T09:07:03.158Z,3688
2018-11-28T09:08:03.139Z,3684
2018-11-28T09:09:03.149Z,3712
2018-11-28T09:10:03.090Z,3708
2018-11-28T09:11:03.098Z,3720
2018-11-28T09:12:03.087Z,3728
2018-11-28T09:13:08.903Z,3736
2018-11-28T09:14:08.956Z,3732
2018-11-28T09:15:03.039Z,3740
2018-11-28T09:16:02.987Z,3748
2018-11-28T09:17:03.023Z,3724
2018-11-28T09:18:03.039Z,3728
2018-11-28T09:19:03.243Z,3748
2018-11-28T09:20:02.697Z,3752
2018-11-28T09:21:02.956Z,3744
2018-11-28T09:22:02.892Z,3736
2018-11-28T09:23:02.957Z,3744
2018-11-28T09:24:02.872Z,3748
2018-11-28T09:25:02.894Z,3740
2018-11-28T09:26:02.874Z,3736
2018-11-28T09:27:03.719Z,3740
2018-11-28T09:28:02.824Z,3744
2018-11-28T09:29:02.783Z,3736
2018-11-28T09:30:02.812Z,3744
2018-11-28T09:31:02.837Z,3740
2018-11-28T09:32:02.782Z,3740
2018-11-28T09:33:02.730Z,3724
2018-11-28T09:34:02.745Z,3708
2018-11-28T09:35:02.718Z,3696
2018-11-28T09:36:02.685Z,3708
2018-11-28T09:37:02.703Z,3708
2018-11-28T09:38:02.636Z,3684
2018-11-28T09:39:02.640Z,3716
2018-11-28T09:40:02.619Z,3716
2018-11-28T09:41:02.655Z,3684
2018-11-28T09:42:02.620Z,3696
2018-11-28T09:43:02.577Z,3708
2018-11-28T09:44:02.560Z,3700
2018-11-28T09:45:02.528Z,3704
2018-11-28T09:46:02.557Z,3704
2018-11-28T09:47:02.516Z,3716
2018-11-28T09:48:02.526Z,3712
2018-11-28T09:49:02.471Z,3688
2018-11-28T09:50:02.743Z,3700
2018-11-28T09:51:02.433Z,3712
2018-11-28T09:52:02.450Z,3712
2018-11-28T09:53:02.418Z,3692
2018-11-28T09:54:02.434Z,3692
2018-11-28T09:55:02.400Z,3692
2018-11-28T09:56:02.393Z,3688
2018-11-28T09:57:02.342Z,3680
2018-11-28T09:58:02.342Z,3684
2018-11-28T09:59:02.341Z,3668
2018-11-28T10:00:02.330Z,3692
2018-11-28T10:01:02.282Z,3676
2018-11-28T10:02:02.310Z,3660
2018-11-28T10:03:02.038Z,3656
2018-11-28T10:04:02.278Z,3664
2018-11-28T10:05:07.731Z,3660
2018-11-28T10:06:02.355Z,3664
2018-11-28T10:07:02.182Z,3660
2018-11-28T10:08:02.247Z,3652
2018-11-28T10:09:02.160Z,3660
2018-11-28T10:10:02.188Z,3660
2018-11-28T10:11:02.154Z,3660
2018-11-28T10:12:02.142Z,3660
2018-11-28T10:13:02.099Z,3668
2018-11-28T10:14:02.081Z,3676
2018-11-28T10:15:02.096Z,3676
2018-11-28T10:16:03.812Z,3680
2018-11-28T10:17:03.057Z,3684
2018-11-28T10:18:02.037Z,3684
2018-11-28T10:19:02.033Z,3684
2018-11-28T10:20:01.994Z,3684
2018-11-28T10:21:02.296Z,3692
2018-11-28T10:22:01.958Z,3692
2018-11-28T10:23:01.995Z,3676
2018-11-28T10:24:01.978Z,3684
2018-11-28T10:25:01.961Z,3684
2018-11-28T10:26:01.914Z,3672
2018-11-28T10:27:01.915Z,3664
2018-11-28T10:28:01.905Z,3668
2018-11-28T10:29:01.849Z,3672
2018-11-28T10:30:01.841Z,3664
2018-11-28T10:31:01.856Z,3668
2018-11-28T10:32:01.853Z,3668
2018-11-28T10:33:01.848Z,3664
2018-11-28T10:34:01.791Z,3668
2018-11-28T10:35:01.793Z,3684
2018-11-28T10:36:01.751Z,3684
2018-11-28T10:37:01.785Z,3688
2018-11-28T10:38:01.726Z,3692
2018-11-28T10:39:01.733Z,3680
2018-11-28T10:40:01.738Z,3660
2018-11-28T10:41:01.671Z,3660
2018-11-28T10:42:01.713Z,3664
2018-11-28T10:43:01.674Z,3660
2018-11-28T10:44:01.716Z,3656
2018-11-28T10:45:01.616Z,3648
2018-11-28T10:46:01.607Z,3648
2018-11-28T10:47:01.617Z,3640
2018-11-28T10:48:01.607Z,3636
2018-11-28T10:49:01.609Z,3632
2018-11-28T10:50:01.554Z,3632
2018-11-28T10:51:01.557Z,3632
2018-11-28T10:52:03.016Z,3624
2018-11-28T10:53:01.506Z,3616
2018-11-28T10:54:01.568Z,3616
2018-11-28T10:55:01.475Z,3612
2018-11-28T10:56:01.492Z,3604
2018-11-28T10:57:01.444Z,3600
2018-11-28T10:58:01.475Z,3600
2018-11-28T10:59:01.448Z,3596
2018-11-28T11:00:01.437Z,3592
2018-11-28T11:01:01.382Z,3580
2018-11-28T11:02:01.381Z,3580
2018-11-28T11:03:01.383Z,3576
2018-11-28T11:04:01.381Z,3572
2018-11-28T11:05:01.541Z,3572
2018-11-28T11:06:01.313Z,3568
2018-11-28T11:07:01.329Z,3560
2018-11-28T11:08:01.279Z,3556
2018-11-28T11:09:01.332Z,3556
2018-11-28T11:10:01.261Z,3556
2018-11-28T11:11:01.299Z,3552
2018-11-28T11:12:01.297Z,3540
2018-11-28T11:13:01.259Z,3540
2018-11-28T11:14:01.203Z,3532
2018-11-28T11:15:01.201Z,3528
2018-11-28T11:16:01.186Z,3520
2018-11-28T11:17:01.211Z,3512
2018-11-28T11:18:12.769Z,3504
2018-11-28T11:19:01.153Z,3500
2018-11-28T11:20:01.144Z,3500
2018-11-28T11:21:01.159Z,3496
2018-11-28T11:22:01.140Z,3488
2018-11-28T11:23:01.103Z,3488
2018-11-28T11:24:01.305Z,3480
2018-11-28T11:25:01.090Z,3476
2018-11-28T11:26:01.033Z,3472
2018-11-28T11:27:01.060Z,3468
2018-11-28T11:28:01.016Z,3464
2018-11-28T11:29:01.036Z,3460
2018-11-28T11:30:01.105Z,3456
2018-11-28T11:31:00.978Z,3460
2018-11-28T11:32:00.954Z,3456
2018-11-28T11:33:00.976Z,3456
2018-11-28T11:34:00.961Z,3452
2018-11-28T11:35:00.945Z,3444
2018-11-28T11:36:00.901Z,3440
2018-11-28T11:37:00.871Z,3436
2018-11-28T11:38:00.901Z,3436
2018-11-28T11:39:00.859Z,3440
2018-11-28T11:40:02.073Z,3440
2018-11-28T11:41:00.819Z,3440
2018-11-28T11:42:00.842Z,3440
2018-11-28T11:43:00.821Z,3432
2018-11-28T11:44:00.794Z,3424
2018-11-28T11:45:00.861Z,3424
2018-11-28T11:46:00.747Z,3424
2018-11-28T11:47:00.752Z,3420
2018-11-28T11:48:00.734Z,3416
2018-11-28T11:49:01.671Z,3408
2018-11-28T11:50:00.745Z,3404
2018-11-28T11:51:00.725Z,3404
2018-11-28T11:52:00.679Z,3404
2018-11-28T11:53:00.655Z,3392
2018-11-28T11:54:00.676Z,3376
2018-11-28T11:55:00.926Z,3364
2018-11-28T11:56:00.654Z,3352
2018-11-28T11:57:00.590Z,3340
2018-11-28T11:58:00.738Z,3332
2018-11-28T11:59:00.569Z,3336
2018-11-28T12:00:02.000Z,3332
2018-11-28T12:01:00.655Z,3328
2018-11-28T12:02:02.013Z,3328
2018-11-28T12:03:00.536Z,3332
2018-11-28T12:04:00.754Z,3320
2018-11-28T12:05:00.480Z,3312
2018-11-28T12:06:00.484Z,3304
2018-11-28T12:07:00.482Z,3292
2018-11-28T12:08:00.474Z,3276
2018-11-28T12:09:00.435Z,3272
2018-11-28T12:10:00.767Z,3272
2018-11-28T12:11:00.432Z,3268
2018-11-28T12:12:00.430Z,3256
2018-11-28T12:13:00.372Z,3256
2018-11-28T12:14:00.394Z,3256
2018-11-28T12:15:00.336Z,3252
2018-11-28T12:16:00.189Z,3248
2018-11-28T12:17:00.315Z,3240
2018-11-28T12:18:00.352Z,3232
2018-11-28T12:19:00.394Z,3228
2018-11-28T12:20:00.306Z,3220
2018-11-28T12:21:00.268Z,3216
2018-11-28T12:22:00.259Z,3208
2018-11-28T12:23:00.305Z,3200
2018-11-28T12:24:00.244Z,3192
2018-11-28T12:25:00.001Z,3184
2018-11-28T12:26:00.184Z,3184
2018-11-28T12:27:00.209Z,3176
2018-11-28T12:28:00.157Z,3172
2018-11-28T12:29:00.190Z,3168
2018-11-28T12:30:00.130Z,3156
2018-11-28T12:31:00.173Z,3148
2018-11-28T12:32:00.117Z,3140
2018-11-28T12:33:00.134Z,3132
2018-11-28T12:34:00.089Z,3124
2018-11-28T12:35:00.140Z,3116
2018-11-28T12:36:00.080Z,3112
2018-11-28T12:36:59.789Z,3112
2018-11-28T12:38:00.020Z,3108
2018-11-28T12:39:00.040Z,3096
2018-11-28T12:40:00.023Z,3084
2018-11-28T12:41:00.021Z,3076
2018-11-28T12:41:59.969Z,3068
2018-11-28T12:42:59.971Z,3060
2018-11-28T12:43:59.933Z,3056
2018-11-28T12:44:59.970Z,3048
2018-11-28T12:45:59.907Z,3040
2018-11-28T12:46:59.936Z,3032
2018-11-28T12:47:59.893Z,3024
2018-11-28T12:48:59.916Z,3016
2018-11-28T12:49:59.849Z,3008
2018-11-28T12:50:59.858Z,3004
2018-11-28T12:51:59.833Z,2996
2018-11-28T12:52:59.860Z,2992
2018-11-28T12:53:59.836Z,2984
2018-11-28T12:54:59.804Z,2980
2018-11-28T12:55:59.776Z,2972
2018-11-28T12:56:59.750Z,2964
2018-11-28T12:57:59.864Z,2956
2018-11-28T12:58:59.742Z,2948
2018-11-28T12:59:59.730Z,2940
2018-11-28T13:00:59.754Z,2928
2018-11-28T13:01:59.682Z,2920
2018-11-28T13:02:59.712Z,2908
2018-11-28T13:03:59.661Z,2904
2018-11-28T13:05:04.622Z,2892
2018-11-28T13:05:59.623Z,2884
2018-11-28T13:06:59.643Z,2876
2018-11-28T13:07:59.617Z,2864
2018-11-28T13:08:59.627Z,2856
2018-11-28T13:09:59.607Z,2848
2018-11-28T13:10:59.575Z,2840
2018-11-28T13:12:05.095Z,2832
2018-11-28T13:12:59.614Z,2816
2018-11-28T13:13:59.552Z,2808
2018-11-28T13:14:59.558Z,2796
2018-11-28T13:15:59.531Z,2784
2018-11-28T13:16:59.465Z,2776
2018-11-28T13:17:59.492Z,2764
2018-11-28T13:18:59.437Z,2756
2018-11-28T13:20:03.883Z,2736
2018-11-28T13:20:59.411Z,2728
2018-11-28T13:21:59.461Z,2716
2018-11-28T13:22:59.433Z,2708
2018-11-28T13:23:59.406Z,2692
2018-11-28T13:24:59.359Z,2680
2018-11-28T13:25:59.381Z,2664
2018-11-28T13:26:59.343Z,2652
2018-11-28T13:27:59.327Z,2640
2018-11-28T13:28:59.297Z,2620
2018-11-28T13:29:59.331Z,2608
2018-11-28T13:30:59.287Z,2596
2018-11-28T13:31:59.306Z,2584
2018-11-28T13:32:59.242Z,2568
2018-11-28T13:33:59.273Z,2560
2018-11-28T13:34:59.219Z,2540
2018-11-28T13:35:59.232Z,2528
2018-11-28T13:36:59.185Z,2508
2018-11-28T13:37:59.218Z,2496
2018-11-28T13:38:59.201Z,2480
2018-11-28T13:39:59.202Z,2464
2018-11-28T13:40:59.127Z,2448
2018-11-28T13:41:59.117Z,2432
2018-11-28T13:42:59.198Z,2412
2018-11-28T13:43:59.123Z,2396
2018-11-28T13:44:59.119Z,2376
2018-11-28T13:45:59.061Z,2356
2018-11-28T13:46:59.069Z,2344
2018-11-28T13:47:59.026Z,2324
2018-11-28T13:48:59.060Z,2304
2018-11-28T13:49:59.006Z,2284
2018-11-28T13:50:59.019Z,2256
2018-11-28T13:51:59.007Z,2248
2018-11-28T13:52:58.953Z,2224
2018-11-28T13:53:58.990Z,2204
2018-11-28T13:56:29.736Z,2164
2018-11-28T13:57:15.083Z,2136
2018-11-28T13:58:11.126Z,2120
2018-11-28T13:59:11.118Z,2092